Time;durP1;ratioP1;P1;durP2;ratioP2;P2;SDS_P1;SDS_P2;PMS_P1;PMS_P2;Temp;Humidity;BMP_temperature;BMP_pressure;BME280_temperature;BME280_humidity;BME280_pressure;Samples;Min_cycle;Max_cycle;Signal;HPM_P1;HPM_P2
2021/03/31 00:01:19;;;;;;;37.67;18.92;;;;;;;4.12;83.09;98558.50;4998741;28;20107;-83
2021/03/31 00:03:44;;;;;;;38.40;19.85;;;;;;;4.02;84.53;98561.38;4998762;28;20525;-83
2021/03/31 00:06:10;;;;;;;38.13;19.40;;;;;;;4.02;85.06;98553.44;4998911;28;20029;-84
2021/03/31 00:08:36;;;;;;;40.60;21.27;;;;;;;4.04;84.67;98548.97;4998922;28;20034;-83
2021/03/31 00:11:01;;;;;;;42.15;20.75;;;;;;;3.98;84.03;98544.69;5015037;28;20037;-83
2021/03/31 00:13:30;;;;;;;43.00;21.00;;;;;;;3.89;85.05;98533.38;4998366;28;20025;-83
2021/03/31 00:15:56;;;;;;;43.47;21.38;;;;;;;4.00;85.53;98549.94;4998560;28;20049;-83
2021/03/31 00:18:22;;;;;;;53.28;26.25;;;;;;;3.88;85.12;98527.22;4998490;28;20034;-83
2021/03/31 00:20:48;;;;;;;49.97;24.05;;;;;;;4.00;85.30;98534.06;4998622;28;20398;-82
2021/03/31 00:23:16;;;;;;;46.00;22.60;;;;;;;4.04;85.78;98541.03;4998449;28;20036;-83
2021/03/31 00:25:42;;;;;;;42.70;20.63;;;;;;;4.04;84.86;98547.19;4998549;28;20509;-83
2021/03/31 00:28:09;;;;;;;52.20;22.05;;;;;;;3.93;84.95;98535.09;4995759;28;20037;-83
2021/03/31 00:30:35;;;;;;;36.92;20.45;;;;;;;3.94;86.30;98547.44;5014489;28;20049;-83
2021/03/31 00:33:00;;;;;;;40.85;21.77;;;;;;;3.91;85.60;98542.19;4998509;28;20033;-83
2021/03/31 00:35:26;;;;;;;45.97;21.00;;;;;;;3.93;85.68;98543.03;4998228;28;20115;-83
2021/03/31 00:37:52;;;;;;;38.97;20.27;;;;;;;3.88;85.64;98531.66;4998257;28;20036;-84
2021/03/31 00:40:19;;;;;;;45.65;21.70;;;;;;;3.81;85.37;98538.84;4998253;28;20029;-83
2021/03/31 00:42:46;;;;;;;39.03;20.73;;;;;;;3.77;85.64;98538.03;4998233;28;20140;-83
2021/03/31 00:45:13;;;;;;;47.90;21.33;;;;;;;3.82;86.67;98535.28;4997974;28;20115;-83
2021/03/31 00:47:39;;;;;;;48.33;22.33;;;;;;;3.69;86.80;98517.91;4998270;28;20041;-84
2021/03/31 00:50:07;;;;;;;51.90;21.92;;;;;;;3.70;86.39;98544.34;4998308;28;20048;-83
2021/03/31 00:52:32;;;;;;;44.42;22.70;;;;;;;3.57;86.51;98537.50;4997716;28;20033;-83
2021/03/31 00:54:58;;;;;;;43.33;23.90;;;;;;;3.67;86.46;98539.09;5014362;28;20413;-84
2021/03/31 00:57:24;;;;;;;56.30;25.27;;;;;;;3.73;86.64;98541.63;4997797;28;20087;-83
2021/03/31 00:59:50;;;;;;;46.60;23.80;;;;;;;3.74;86.79;98545.16;4998117;28;20029;-84
2021/03/31 01:02:15;;;;;;;46.53;23.00;;;;;;;3.63;86.82;98539.19;4997534;28;20572;-84
2021/03/31 01:04:41;;;;;;;46.83;22.90;;;;;;;3.46;87.64;98528.91;4997882;28;20041;-84
2021/03/31 01:07:06;;;;;;;51.65;25.83;;;;;;;3.39;88.19;98537.84;4998979;28;20037;-84
2021/03/31 01:09:32;;;;;;;47.25;24.20;;;;;;;3.41;88.34;98549.28;5014077;28;20124;-84
2021/03/31 01:12:16;;;;;;;46.88;23.17;;;;;;;3.42;87.87;98550.13;4998177;28;20017;-84
2021/03/31 01:15:06;;;;;;;39.33;20.63;;;;;;;3.37;88.19;98542.31;5014145;28;20029;-84
2021/03/31 01:17:36;;;;;;;30.17;16.73;;;;;;;3.24;86.95;98532.81;5013566;28;20104;-84
2021/03/31 01:20:17;;;;;;;38.83;17.27;;;;;;;3.41;86.72;98544.00;5014003;28;20092;-84
2021/03/31 01:23:04;;;;;;;36.75;16.42;;;;;;;3.27;86.91;98541.59;4990461;28;20029;-84
2021/03/31 01:26:04;;;;;;;31.70;16.40;;;;;;;3.14;88.42;98518.00;5013803;28;20115;-84
2021/03/31 01:28:45;;;;;;;36.85;18.38;;;;;;;3.18;88.94;98535.56;4966548;28;20533;-84
2021/03/31 01:31:19;;;;;;;38.90;15.88;;;;;;;3.06;88.55;98544.59;5014461;28;20409;-84
2021/03/31 01:33:48;;;;;;;29.67;15.13;;;;;;;3.02;89.61;98536.72;5014061;28;20040;-84
2021/03/31 01:36:16;;;;;;;30.23;15.50;;;;;;;3.03;88.59;98543.75;5013885;28;20037;-84
2021/03/31 01:38:44;;;;;;;30.70;15.43;;;;;;;2.99;89.03;98529.72;4997639;28;20021;-84
2021/03/31 01:41:10;;;;;;;30.48;14.02;;;;;;;3.05;88.21;98541.97;4997521;28;20029;-83
2021/03/31 01:43:36;;;;;;;29.15;14.48;;;;;;;3.02;88.20;98536.72;4999736;28;20052;-84
2021/03/31 01:46:02;;;;;;;30.15;15.20;;;;;;;2.94;88.97;98546.56;5001396;28;20513;-84
2021/03/31 01:48:30;;;;;;;40.33;13.32;;;;;;;2.93;88.76;98545.66;5001163;28;20493;-84
2021/03/31 01:51:02;;;;;;;25.75;13.73;;;;;;;2.93;89.16;98550.97;5001447;28;20091;-85
2021/03/31 01:53:27;;;;;;;26.42;14.93;;;;;;;2.81;90.57;98545.88;5001121;28;20413;-83
2021/03/31 01:55:54;;;;;;;25.75;14.07;;;;;;;2.85;90.61;98544.94;5001512;28;20037;-83
2021/03/31 01:58:20;;;;;;;31.08;14.48;;;;;;;2.83;90.97;98537.94;5001135;28;20111;-83
2021/03/31 02:00:47;;;;;;;28.67;15.82;;;;;;;2.87;91.37;98544.88;5001554;28;20051;-83
2021/03/31 02:03:14;;;;;;;36.95;16.85;;;;;;;2.98;91.89;98548.25;5001114;28;20041;-84
2021/03/31 02:05:40;;;;;;;33.33;16.45;;;;;;;2.90;91.30;98534.28;5001122;28;20087;-84
2021/03/31 02:08:06;;;;;;;34.78;16.13;;;;;;;2.90;90.95;98535.16;5001016;28;20029;-84
2021/03/31 02:10:32;;;;;;;38.45;16.13;;;;;;;2.98;90.86;98537.69;5000828;28;20056;-84
2021/03/31 02:12:58;;;;;;;32.92;16.88;;;;;;;3.03;90.15;98536.72;5001026;28;20053;-84
2021/03/31 02:15:27;;;;;;;29.52;16.23;;;;;;;3.03;90.06;98539.34;5000779;28;20040;-84
2021/03/31 02:17:54;;;;;;;34.80;16.23;;;;;;;3.10;90.75;98529.56;5001265;28;20485;-84
2021/03/31 02:20:21;;;;;;;33.63;15.65;;;;;;;3.25;89.37;98531.94;5000531;28;20120;-84
2021/03/31 02:22:47;;;;;;;38.45;18.73;;;;;;;3.35;88.45;98544.13;5000574;28;20030;-83
2021/03/31 02:25:13;;;;;;;41.65;19.70;;;;;;;3.33;88.65;98535.31;5000723;28;20029;-83
2021/03/31 02:27:39;;;;;;;50.10;23.02;;;;;;;3.45;87.76;98539.50;5016900;28;20072;-83
2021/03/31 02:30:09;;;;;;;39.15;19.63;;;;;;;3.41;87.45;98521.97;5000480;28;20037;-83
2021/03/31 02:32:36;;;;;;;34.78;18.58;;;;;;;3.37;87.23;98531.72;5000429;28;20071;-84
2021/03/31 02:35:03;;;;;;;34.92;18.88;;;;;;;3.47;87.46;98533.31;5000755;28;20032;-83
2021/03/31 02:37:29;;;;;;;47.42;18.98;;;;;;;3.45;87.48;98528.94;5000365;28;20463;-83
2021/03/31 02:39:55;;;;;;;36.92;18.17;;;;;;;3.54;87.99;98536.69;5000425;28;20045;-83
2021/03/31 02:42:22;;;;;;;33.60;16.90;;;;;;;3.56;87.00;98527.84;5000427;28;20413;-83
2021/03/31 02:44:50;;;;;;;37.67;18.02;;;;;;;3.64;86.57;98525.94;5017011;28;20029;-83
2021/03/31 02:47:19;;;;;;;37.60;18.50;;;;;;;3.64;86.33;98525.94;5000459;28;20506;-84
2021/03/31 02:49:52;;;;;;;34.20;17.20;;;;;;;3.62;86.15;98525.09;5000333;28;20029;-83
2021/03/31 02:52:19;;;;;;;30.75;16.63;;;;;;;3.57;86.71;98534.88;5000412;28;20022;-83
2021/03/31 02:54:47;;;;;;;33.63;16.98;;;;;;;3.65;87.01;98527.69;5015938;28;20136;-83
2021/03/31 02:57:13;;;;;;;35.13;17.55;;;;;;;3.65;86.92;98510.94;5000180;28;20031;-83
2021/03/31 02:59:41;;;;;;;36.83;17.25;;;;;;;3.76;86.87;98520.41;5000052;28;20033;-83
2021/03/31 03:02:08;;;;;;;37.83;17.48;;;;;;;3.85;86.97;98529.94;5000280;28;20132;-84
2021/03/31 03:04:35;;;;;;;31.13;16.73;;;;;;;3.88;86.78;98523.72;4999721;28;20052;-85
2021/03/31 03:07:01;;;;;;;36.17;17.85;;;;;;;3.84;86.53;98517.63;4999900;28;20481;-84
2021/03/31 03:09:26;;;;;;;34.55;16.80;;;;;;;3.82;85.57;98525.56;5016283;28;20028;-83
2021/03/31 03:11:52;;;;;;;38.72;18.77;;;;;;;3.70;86.61;98520.53;5000358;28;20056;-86
2021/03/31 03:14:19;;;;;;;32.92;17.05;;;;;;;3.78;86.94;98530.97;5000754;28;20428;-86
2021/03/31 03:16:44;;;;;;;39.30;17.33;;;;;;;3.65;86.66;98525.03;4999844;28;20033;-84
2021/03/31 03:19:11;;;;;;;36.38;17.90;;;;;;;3.60;87.50;98534.81;4999498;28;20036;-83
2021/03/31 03:21:37;;;;;;;34.90;17.45;;;;;;;3.46;87.92;98520.97;4999261;28;20033;-83
2021/03/31 03:24:03;;;;;;;33.65;17.05;;;;;;;3.40;89.19;98507.88;4999908;28;20029;-87
2021/03/31 03:26:29;;;;;;;38.42;17.83;;;;;;;3.46;89.75;98520.97;4999378;28;20445;-84
2021/03/31 03:28:56;;;;;;;53.00;25.38;;;;;;;3.45;89.78;98523.63;4991320;28;20021;-84
2021/03/31 03:31:22;;;;;;;68.50;28.30;;;;;;;3.47;89.91;98533.31;4999412;28;20014;-84
2021/03/31 03:33:48;;;;;;;68.90;29.02;;;;;;;3.49;90.65;98538.56;4999451;28;20026;-84
2021/03/31 03:36:14;;;;;;;59.70;26.50;;;;;;;3.56;89.97;98532.28;4999427;28;20120;-84
2021/03/31 03:38:41;;;;;;;45.13;19.88;;;;;;;3.46;89.00;98528.91;4999228;28;20087;-84
2021/03/31 03:41:08;;;;;;;37.47;18.08;;;;;;;3.54;87.87;98534.94;4999019;28;20029;-84
2021/03/31 03:43:34;;;;;;;32.13;18.40;;;;;;;3.49;87.93;98535.91;4999026;28;20022;-84
2021/03/31 03:45:59;;;;;;;36.90;18.15;;;;;;;3.39;89.86;98532.56;4999680;28;20028;-85
2021/03/31 03:48:25;;;;;;;44.03;19.25;;;;;;;3.40;89.07;98531.66;4999329;28;20025;-84
2021/03/31 03:50:52;;;;;;;45.45;21.50;;;;;;;3.41;88.35;98525.50;4999062;28;20504;-84
2021/03/31 03:53:18;;;;;;;44.75;21.33;;;;;;;3.41;88.00;98522.84;4998932;28;20047;-83
2021/03/31 03:55:43;;;;;;;66.53;33.88;;;;;;;3.38;87.94;98528.19;4998744;28;20094;-83
2021/03/31 03:58:09;;;;;;;59.67;31.70;;;;;;;3.39;86.99;98529.91;4998957;28;20029;-83
2021/03/31 04:00:36;;;;;;;52.28;24.33;;;;;;;3.31;87.44;98530.97;5015667;28;20424;-83
2021/03/31 04:03:07;;;;;;;52.95;25.90;;;;;;;3.30;87.84;98527.44;4999082;28;20041;-83
2021/03/31 04:05:36;;;;;;;38.40;19.63;;;;;;;3.24;88.06;98516.97;5015228;28;20413;-82
2021/03/31 04:08:01;;;;;;;40.97;20.25;;;;;;;3.20;87.59;98526.72;4990755;28;20477;-85
2021/03/31 04:10:28;;;;;;;31.67;18.23;;;;;;;3.24;87.94;98535.47;4999105;28;20094;-83
2021/03/31 04:12:56;;;;;;;29.27;15.35;;;;;;;3.15;87.79;98530.34;4998331;28;20026;-84
2021/03/31 04:15:22;;;;;;;29.65;16.13;;;;;;;3.18;88.26;98532.94;4998618;28;20095;-84
2021/03/31 04:17:48;;;;;;;31.27;14.50;;;;;;;3.08;87.75;98526.03;4998597;28;20037;-83
2021/03/31 04:20:22;;;;;;;26.33;14.23;;;;;;;3.06;87.63;98517.28;5015203;28;20106;-84
2021/03/31 04:22:48;;;;;;;29.80;14.82;;;;;;;3.03;88.97;98515.56;5014879;28;20116;-84
2021/03/31 04:25:16;;;;;;;28.90;14.45;;;;;;;3.14;88.62;98518.88;4998728;28;20505;-83
2021/03/31 04:27:43;;;;;;;24.80;14.63;;;;;;;3.24;88.34;98530.19;4998038;28;20044;-83
2021/03/31 04:30:10;;;;;;;23.00;13.85;;;;;;;3.26;87.95;98528.41;4998312;28;20136;-83
2021/03/31 04:32:43;;;;;;;30.83;14.85;;;;;;;3.26;88.69;98531.06;4998416;28;20025;-83
2021/03/31 04:35:09;;;;;;;32.65;14.25;;;;;;;3.37;88.39;98538.78;4998153;28;20025;-83
2021/03/31 04:37:35;;;;;;;72.78;21.70;;;;;;;3.38;88.93;98544.06;4998285;28;20128;-83
2021/03/31 04:40:04;;;;;;;48.65;21.02;;;;;;;3.29;89.43;98544.22;5013081;28;20057;-85
2021/03/31 04:42:29;;;;;;;54.13;19.98;;;;;;;3.24;90.50;98535.47;4996767;28;20537;-84
2021/03/31 04:44:56;;;;;;;37.72;17.92;;;;;;;3.32;90.71;98545.94;4996578;28;20171;-83
2021/03/31 04:47:21;;;;;;;47.00;19.70;;;;;;;3.45;90.16;98535.09;4996741;28;20029;-83
2021/03/31 04:49:47;;;;;;;35.88;20.00;;;;;;;3.56;89.03;98550.78;4996473;28;20040;-83
2021/03/31 04:52:12;;;;;;;38.60;19.27;;;;;;;3.66;88.57;98563.78;4996642;28;20030;-84
2021/03/31 04:54:38;;;;;;;40.42;18.88;;;;;;;3.73;88.33;98552.22;4996794;28;20041;-83
2021/03/31 04:57:04;;;;;;;52.30;26.73;;;;;;;3.83;87.28;98559.09;4995977;28;20033;-85
2021/03/31 04:59:29;;;;;;;64.22;26.15;;;;;;;4.05;86.00;98570.13;4996556;28;20125;-82
2021/03/31 05:01:55;;;;;;;50.97;23.73;;;;;;;4.13;86.16;98565.53;4998986;28;20033;-83
2021/03/31 05:04:21;;;;;;;49.65;23.05;;;;;;;4.25;84.66;98560.00;4999434;28;20049;-82
2021/03/31 05:06:46;;;;;;;87.22;36.35;;;;;;;4.43;83.15;98568.47;4996299;28;20033;-82
2021/03/31 05:09:12;;;;;;;70.72;30.73;;;;;;;4.52;83.04;98579.75;4995850;28;20025;-83
2021/03/31 05:11:37;;;;;;;83.07;36.83;;;;;;;4.73;81.77;98571.34;4996267;28;20040;-81
2021/03/31 05:14:04;;;;;;;102.25;45.35;;;;;;;4.91;80.67;98577.97;4997782;28;20046;-82
2021/03/31 05:16:30;;;;;;;99.80;41.58;;;;;;;4.88;79.83;98570.97;4997123;28;20025;-81
2021/03/31 05:18:58;;;;;;;96.82;43.70;;;;;;;4.98;80.76;98582.25;4997876;28;20056;-82
2021/03/31 05:21:24;;;;;;;74.43;29.95;;;;;;;5.16;80.11;98572.97;4997269;28;20506;-82
2021/03/31 05:23:50;;;;;;;81.57;38.55;;;;;;;5.19;79.98;98576.44;4996745;28;20033;-82
2021/03/31 05:26:26;;;;;;;89.45;43.20;;;;;;;5.39;79.26;98573.28;4997720;28;20025;-82
2021/03/31 05:28:52;;;;;;;98.78;45.67;;;;;;;5.86;77.43;98574.75;4998279;28;20071;-82
2021/03/31 05:31:29;;;;;;;110.53;49.20;;;;;;;6.37;74.58;98577.72;5005644;28;20037;-82
2021/03/31 05:34:16;;;;;;;;;;;;;;;;;;;;;
2021/03/31 05:54:30;;;;;;;57.72;29.73;;;;;;;8.08;64.25;98559.75;4757910;30;20047;-82
2021/03/31 05:57:08;;;;;;;56.13;25.70;;;;;;;9.02;60.37;98528.63;4781981;29;20038;-82
2021/03/31 06:14:23;;;;;;;;;;;;;;;;;;;;;
2021/03/31 06:24:17;;;;;;;53.10;24.42;;;;;;;9.55;57.63;98531.78;4703940;30;19923;-83
2021/03/31 06:27:19;;;;;;;;;;;;;;;;;;;;;
2021/03/31 06:30:19;;;;;;;;;;;;;;;;;;;;;
2021/03/31 06:39:57;;;;;;;;;;;;;;;;;;;;;
2021/03/31 06:43:24;;;;;;;36.60;21.42;;;;;;;14.89;40.39;98540.94;4910084;29;20096;-83
2021/03/31 06:46:47;;;;;;;44.30;24.48;;;;;;;15.48;39.29;98582.97;4951161;28;20058;-83
2021/03/31 06:53:17;;;;;;;;;;;;;;;;;;;;;
2021/03/31 06:59:22;;;;;;;41.45;22.55;;;;;;;13.95;41.92;98532.44;5016259;28;20484;-83
2021/03/31 07:02:22;;;;;;;45.30;25.17;;;;;;;14.60;40.34;98552.69;5016539;28;20033;-83
2021/03/31 07:08:57;;;;;;;48.95;27.08;;;;;;;15.85;38.25;98591.31;5022562;28;20049;-83
2021/03/31 07:23:28;;;;;;;52.55;24.42;;;;;;;14.32;40.97;98548.09;4860327;29;20181;-82
2021/03/31 07:26:15;;;;;;;36.85;19.38;;;;;;;14.48;39.69;98521.16;4878308;28;20535;-81
2021/03/31 07:32:17;;;;;;;22.15;14.90;;;;;;;14.67;41.10;98553.19;5002206;28;20033;-81
2021/03/31 07:34:43;;;;;;;32.03;14.50;;;;;;;14.80;41.04;98586.44;4996349;28;20048;-83
2021/03/31 07:37:53;;;;;;;27.60;14.52;;;;;;;14.59;42.85;98592.22;5017415;28;20401;-82
2021/03/31 07:40:25;;;;;;;40.60;13.93;;;;;;;15.17;39.63;98526.56;5014199;28;20057;-79
2021/03/31 07:43:00;;;;;;;21.45;11.80;;;;;;;15.70;38.40;98579.72;4999558;28;20420;-79
2021/03/31 07:45:30;;;;;;;20.35;12.07;;;;;;;17.51;35.33;98555.22;5015196;28;20057;-79
2021/03/31 07:47:57;;;;;;;27.13;12.60;;;;;;;18.86;33.31;98553.81;4999091;28;20033;-78
2021/03/31 07:50:26;;;;;;;38.65;21.42;;;;;;;18.78;33.94;98559.00;5007196;28;20112;-78
2021/03/31 07:53:00;;;;;;;25.00;13.18;;;;;;;19.61;32.79;98561.34;4999130;28;20033;-79
2021/03/31 07:55:39;;;;;;;22.52;13.82;;;;;;;19.35;34.36;98558.00;4999045;28;20514;-79
2021/03/31 07:58:16;;;;;;;19.92;13.20;;;;;;;19.21;33.40;98560.97;5014971;28;20033;-79
2021/03/31 08:00:48;;;;;;;24.15;13.00;;;;;;;18.24;35.22;98569.53;5014689;28;20040;-80
2021/03/31 08:03:24;;;;;;;20.77;12.85;;;;;;;17.91;35.84;98568.50;5016802;28;20041;-79
2021/03/31 08:06:08;;;;;;;22.40;12.07;;;;;;;19.55;33.53;98565.44;5002699;28;20095;-79
2021/03/31 08:08:52;;;;;;;17.75;12.25;;;;;;;20.18;32.82;98567.34;5026527;28;20044;-79
2021/03/31 08:11:36;;;;;;;28.38;10.70;;;;;;;20.70;31.26;98549.31;5034069;28;20108;-81
2021/03/31 08:14:05;;;;;;;19.95;10.80;;;;;;;18.23;33.00;98542.56;5020479;28;20120;-79
2021/03/31 08:16:37;;;;;;;20.73;10.73;;;;;;;18.28;32.83;98551.19;4998732;28;20029;-79
2021/03/31 08:19:15;;;;;;;26.92;10.23;;;;;;;19.16;32.28;98525.25;5014272;28;20552;-78
2021/03/31 08:21:41;;;;;;;25.00;11.10;;;;;;;18.83;31.18;98539.63;5032048;28;20028;-78
2021/03/31 08:24:08;;;;;;;19.05;11.00;;;;;;;17.17;32.84;98531.63;5015554;28;20027;-77
2021/03/31 08:26:43;;;;;;;51.95;12.95;;;;;;;17.80;34.27;98543.13;5016607;28;20485;-79
2021/03/31 08:29:27;;;;;;;22.95;12.20;;;;;;;18.56;31.70;98534.56;5018566;28;20064;-79
2021/03/31 08:31:53;;;;;;;21.50;12.23;;;;;;;17.69;32.97;98532.22;5016824;28;20029;-79
2021/03/31 08:34:19;;;;;;;17.38;11.80;;;;;;;17.31;33.29;98536.91;5014960;28;20095;-79
2021/03/31 08:36:45;;;;;;;23.38;11.63;;;;;;;18.17;32.09;98533.06;5015195;28;20021;-80
2021/03/31 08:39:12;;;;;;;21.15;13.10;;;;;;;18.81;32.07;98515.38;5031819;28;20033;-79
2021/03/31 08:41:51;;;;;;;22.35;11.77;;;;;;;19.18;31.05;98524.13;5032891;28;20052;-79
2021/03/31 08:44:21;;;;;;;21.52;12.20;;;;;;;18.58;31.81;98523.63;5014975;28;20044;-79
2021/03/31 08:46:47;;;;;;;18.90;10.77;;;;;;;16.37;33.56;98519.31;5014409;28;20033;-79
2021/03/31 08:49:43;;;;;;;14.07;10.13;;;;;;;16.27;34.11;98529.06;4997871;28;20033;-80
2021/03/31 08:52:11;;;;;;;27.42;11.80;;;;;;;16.40;34.45;98513.72;4977654;28;20045;-79
2021/03/31 08:54:42;;;;;;;19.25;12.02;;;;;;;15.98;35.17;98516.69;5014290;28;20033;-78
2021/03/31 08:57:12;;;;;;;19.27;11.70;;;;;;;15.36;35.58;98508.25;4997648;28;20037;-80
2021/03/31 08:59:39;;;;;;;17.15;11.45;;;;;;;15.82;35.15;98502.50;5031579;28;20026;-78
2021/03/31 09:02:06;;;;;;;25.85;12.23;;;;;;;17.89;34.40;98509.09;5014051;28;20029;-80
2021/03/31 09:04:32;;;;;;;15.80;10.38;;;;;;;17.45;33.18;98504.28;4997477;28;20049;-80
2021/03/31 09:07:01;;;;;;;24.90;11.35;;;;;;;18.64;33.25;98493.31;5014593;28;20555;-79
2021/03/31 09:09:35;;;;;;;19.60;11.07;;;;;;;21.47;28.31;98487.97;5013614;28;20056;-79
2021/03/31 09:12:01;;;;;;;45.75;12.30;;;;;;;22.77;25.78;98466.56;5015201;28;20014;-79
2021/03/31 09:14:27;;;;;;;23.20;10.43;;;;;;;23.14;26.09;98460.09;5014573;28;20489;-81
2021/03/31 09:17:04;;;;;;;23.48;10.10;;;;;;;23.39;23.41;98452.22;4997655;28;20090;-80
2021/03/31 09:19:35;;;;;;;26.02;10.05;;;;;;;23.50;24.48;98461.06;5013733;28;20044;-79
2021/03/31 09:22:08;;;;;;;18.15;9.85;;;;;;;23.21;23.73;98461.22;5014069;28;20095;-79
2021/03/31 09:24:36;;;;;;;15.50;9.88;;;;;;;21.77;25.48;98455.19;4997621;28;20397;-81
2021/03/31 09:27:07;;;;;;;13.88;9.75;;;;;;;21.69;25.15;98459.63;5014134;28;20061;-81
2021/03/31 09:29:36;;;;;;;25.70;10.43;;;;;;;21.98;25.51;98464.13;5014351;28;20041;-81
2021/03/31 09:32:04;;;;;;;17.35;9.48;;;;;;;22.55;25.75;98456.84;5020078;28;20397;-81
2021/03/31 09:34:38;;;;;;;14.15;9.60;;;;;;;23.11;24.45;98446.75;5018438;28;20057;-80
2021/03/31 09:37:07;;;;;;;14.95;10.10;;;;;;;24.21;21.85;98434.66;5010837;28;20048;-81
2021/03/31 09:39:40;;;;;;;16.38;9.27;;;;;;;25.13;21.27;98442.28;5012248;28;20037;-81
2021/03/31 09:42:06;;;;;;;12.02;8.80;;;;;;;25.83;20.74;98425.41;5028520;28;20451;-79
2021/03/31 09:44:32;;;;;;;16.23;9.73;;;;;;;23.50;23.38;98419.28;4994715;28;20534;-80
2021/03/31 09:46:59;;;;;;;17.38;10.25;;;;;;;23.79;22.64;98414.44;5011530;28;20070;-81
2021/03/31 09:49:26;;;;;;;14.75;9.55;;;;;;;25.21;22.17;98440.44;4994320;28;20549;-80
2021/03/31 09:51:51;;;;;;;12.98;10.02;;;;;;;24.34;22.62;98422.44;5010393;28;20060;-80
2021/03/31 09:54:17;;;;;;;15.57;10.52;;;;;;;23.52;22.87;98422.69;5011697;28;20056;-80
2021/03/31 09:56:44;;;;;;;20.85;11.73;;;;;;;22.35;25.10;98417.00;4996446;28;20026;-81
2021/03/31 09:59:10;;;;;;;29.30;14.13;;;;;;;24.04;23.80;98410.03;4998064;28;20508;-82
2021/03/31 10:01:37;;;;;;;21.05;10.10;;;;;;;24.53;23.14;98416.75;4994581;28;20124;-81
2021/03/31 10:04:03;;;;;;;26.50;13.20;;;;;;;23.62;23.76;98410.69;4996434;28;20045;-83
2021/03/31 10:06:29;;;;;;;28.23;14.38;;;;;;;22.77;24.98;98412.00;4998136;28;20044;-81
2021/03/31 10:08:55;;;;;;;17.92;11.15;;;;;;;22.63;24.65;98408.75;4999394;28;20029;-79
2021/03/31 10:11:28;;;;;;;13.43;9.32;;;;;;;21.23;26.01;98409.38;5014042;28;20462;-83
2021/03/31 10:13:53;;;;;;;16.35;9.48;;;;;;;20.06;27.60;98402.66;4997707;28;20025;-82
2021/03/31 10:16:19;;;;;;;14.80;10.13;;;;;;;18.36;28.87;98402.47;5016163;28;20032;-84
2021/03/31 10:18:45;;;;;;;17.48;9.68;;;;;;;18.54;29.27;98384.78;4998493;28;20029;-82
2021/03/31 10:21:11;;;;;;;15.65;9.50;;;;;;;19.71;29.49;98413.00;4998337;28;20026;-83
2021/03/31 10:23:38;;;;;;;15.60;9.20;;;;;;;19.99;27.16;98405.03;4998348;28;20029;-79
2021/03/31 10:26:19;;;;;;;16.17;10.20;;;;;;;21.76;25.87;98385.34;5014495;28;20032;-81
2021/03/31 10:28:44;;;;;;;20.58;9.88;;;;;;;22.72;23.64;98389.78;5014294;28;20489;-80
2021/03/31 10:31:25;;;;;;;31.15;9.43;;;;;;;22.63;24.25;98389.66;4997937;28;20040;-80
2021/03/31 10:33:51;;;;;;;14.32;8.75;;;;;;;22.28;24.65;98372.25;5007278;28;20033;-81
2021/03/31 10:50:23;;;;;;;34.40;15.68;;;;;;;19.40;27.58;98355.88;5015651;28;20031;-80
2021/03/31 10:52:52;;;;;;;20.63;8.57;;;;;;;20.44;26.73;98369.44;5013215;28;20493;-79
2021/03/31 10:55:17;;;;;;;17.75;8.52;;;;;;;19.35;27.03;98346.34;4998513;28;20033;-81
2021/03/31 10:57:43;;;;;;;17.52;8.75;;;;;;;19.15;29.32;98366.16;5013304;28;20040;-82
2021/03/31 11:00:09;;;;;;;14.60;8.65;;;;;;;20.71;26.14;98353.38;4998359;28;20570;-79
2021/03/31 11:02:34;;;;;;;18.15;8.73;;;;;;;21.05;25.29;98349.31;4996645;28;20187;-80
2021/03/31 11:05:00;;;;;;;13.48;7.95;;;;;;;21.95;24.92;98352.69;5013343;28;20053;-81
2021/03/31 11:07:26;;;;;;;13.70;8.73;;;;;;;21.91;23.21;98323.13;4997957;28;20120;-79
2021/03/31 11:09:51;;;;;;;13.68;9.82;;;;;;;24.10;21.27;98328.25;5013128;28;20032;-79
2021/03/31 11:12:17;;;;;;;13.88;8.77;;;;;;;24.40;21.96;98321.44;5013133;28;20025;-78
2021/03/31 11:14:43;;;;;;;14.85;8.98;;;;;;;24.52;21.54;98309.19;4996271;28;20037;-79
2021/03/31 11:27:46;;;;;;;17.30;8.45;;;;;;;23.30;22.25;98292.88;5030900;28;20100;-79
2021/03/31 11:30:14;;;;;;;18.85;9.55;;;;;;;23.73;23.01;98281.16;5013167;28;20029;-80
2021/03/31 11:32:42;;;;;;;49.70;23.60;;;;;;;25.46;21.42;98285.19;5013740;28;20571;-81
2021/03/31 11:35:08;;;;;;;21.85;8.50;;;;;;;23.71;22.21;98275.88;4990607;28;20033;-81
2021/03/31 11:37:35;;;;;;;20.60;9.68;;;;;;;23.45;22.06;98276.81;5013002;28;20033;-80
2021/03/31 11:40:00;;;;;;;32.08;8.02;;;;;;;23.65;21.79;98272.91;4996789;28;20128;-80
2021/03/31 11:42:26;;;;;;;15.15;8.00;;;;;;;24.54;21.10;98281.69;5012541;28;20071;-80
2021/03/31 11:44:52;;;;;;;11.20;7.38;;;;;;;25.24;20.64;98270.28;5012845;28;20040;-80
2021/03/31 11:47:17;;;;;;;13.00;7.65;;;;;;;24.57;21.07;98271.28;5012344;28;20033;-81
2021/03/31 11:49:43;;;;;;;14.82;7.35;;;;;;;24.72;20.63;98258.66;4995967;28;20497;-81
2021/03/31 11:52:08;;;;;;;14.23;7.63;;;;;;;22.89;21.60;98250.66;4996078;28;20037;-80
2021/03/31 11:54:34;;;;;;;90.93;11.13;;;;;;;23.14;22.04;98246.31;4996242;28;20542;-80
2021/03/31 11:57:00;;;;;;;15.20;7.93;;;;;;;23.15;22.92;98242.56;5012312;28;20072;-80
2021/03/31 11:59:25;;;;;;;17.38;8.68;;;;;;;24.07;21.47;98252.00;4996136;28;20029;-80
2021/03/31 12:01:51;;;;;;;15.85;7.05;;;;;;;24.09;20.70;98249.97;5012224;28;20503;-81
2021/03/31 12:04:16;;;;;;;14.43;6.97;;;;;;;23.92;21.04;98239.97;5011661;28;20060;-81
2021/03/31 12:06:43;;;;;;;15.27;6.78;;;;;;;24.03;20.44;98238.81;5001332;28;20128;-79
2021/03/31 12:09:10;;;;;;;12.77;7.72;;;;;;;24.61;20.27;98234.31;5012612;28;20064;-79
2021/03/31 12:11:35;;;;;;;12.07;6.60;;;;;;;24.57;20.26;98238.44;4995898;28;20040;-80
2021/03/31 12:14:01;;;;;;;14.20;7.30;;;;;;;22.60;22.74;98229.03;5011902;28;20532;-80
2021/03/31 12:16:26;;;;;;;10.80;7.22;;;;;;;24.42;20.51;98220.94;4996804;28;20029;-80
2021/03/31 12:18:52;;;;;;;14.40;7.53;;;;;;;26.89;19.14;98210.13;5015731;28;20026;-81
2021/03/31 12:21:18;;;;;;;15.10;7.25;;;;;;;25.89;18.73;98204.50;5011896;28;20025;-80
2021/03/31 12:23:47;;;;;;;31.10;7.72;;;;;;;24.20;21.32;98197.78;4995191;28;20025;-80
2021/03/31 12:26:13;;;;;;;22.08;8.18;;;;;;;24.87;19.38;98190.47;4995232;28;20029;-80
2021/03/31 12:28:40;;;;;;;16.63;6.60;;;;;;;24.22;20.33;98192.97;4995545;28;20053;-82
2021/03/31 12:31:07;;;;;;;11.35;6.22;;;;;;;24.59;19.79;98191.72;4995134;28;20112;-80
2021/03/31 12:33:34;;;;;;;12.32;7.47;;;;;;;23.39;21.26;98190.03;4995335;28;20116;-80
2021/03/31 12:36:00;;;;;;;9.30;6.57;;;;;;;23.68;20.89;98176.97;5011620;28;20082;-79
2021/03/31 12:38:26;;;;;;;14.88;7.22;;;;;;;25.04;19.19;98183.97;5029867;28;20021;-80
2021/03/31 12:40:51;;;;;;;13.20;7.50;;;;;;;24.29;20.72;98179.50;5011415;28;20033;-79
2021/03/31 12:43:17;;;;;;;12.90;8.82;;;;;;;24.98;20.87;98181.91;5011853;28;20052;-80
2021/03/31 12:45:43;;;;;;;47.80;9.20;;;;;;;23.59;21.05;98169.72;4994832;28;20041;-80
2021/03/31 12:48:08;;;;;;;13.05;7.13;;;;;;;22.20;22.27;98160.38;4995127;28;20029;-80
2021/03/31 12:50:36;;;;;;;21.50;7.70;;;;;;;20.16;23.80;98155.47;5011792;28;20026;-80
2021/03/31 12:53:25;;;;;;;13.65;7.05;;;;;;;21.51;23.47;98159.94;5011482;28;20060;-81
2021/03/31 12:55:50;;;;;;;13.15;6.15;;;;;;;21.99;23.98;98155.19;5013767;28;20056;-80
2021/03/31 12:58:17;;;;;;;13.52;6.75;;;;;;;22.75;21.88;98158.44;5003165;28;20061;-80
2021/03/31 13:00:44;;;;;;;15.38;7.70;;;;;;;23.90;20.83;98161.88;4995407;28;20056;-80
2021/03/31 13:03:09;;;;;;;11.43;6.72;;;;;;;22.44;21.36;98143.44;4994652;28;20066;-80
2021/03/31 13:05:37;;;;;;;10.38;6.35;;;;;;;21.72;22.63;98138.78;5011366;28;20041;-80
2021/03/31 13:08:03;;;;;;;10.52;7.10;;;;;;;22.47;21.60;98134.94;4994963;28;20029;-80
2021/03/31 13:10:29;;;;;;;16.98;6.93;;;;;;;21.52;23.57;98145.31;5028912;28;20051;-82
2021/03/31 13:12:59;;;;;;;15.88;6.93;;;;;;;20.70;24.22;98145.00;5010965;28;20105;-80
2021/03/31 13:15:30;;;;;;;15.98;7.57;;;;;;;21.46;24.08;98145.91;5012221;28;20037;-81
2021/03/31 13:18:07;;;;;;;14.43;8.17;;;;;;;21.83;23.68;98138.59;5011962;28;20025;-80
2021/03/31 13:30:47;;;;;;;23.17;12.80;;;;;;;24.58;20.75;98102.50;5027920;28;20033;-80